PWSweather.com
Personal Weather Stations
Station Observations

OlomoucCZ

Lat: 49.5936202181, Lon: 17.2276005149

Elevation: 752

Station Type: Davis Vantage Pro 2 Activ

http://infopocasi-olomouc.cz

High Low Average
Temperature 31.1°F-0.5°C 23.8°F-4.6°C 27.4°F-2.6°C
Dew Point 29.6°F-1.3°C 19.1°F-7.2°C 24.7°F-4.1°C
Winds 10.4 mph 16.7 kmh Calm Calm 4.0 mph S6.4 kmh S
Wind Gusts 12.7 mph20.4 kmh 1.2 mph1.9 kmh 6.0 mph9.7 kmh
Humidity 96% 81% 89%
Pressure 29.94 in1013.9 mb 29.66 in1004.4 mb -
Precipitation 0.02 in0.5 mm - -
Hour Temp Dew Point Humidity Winds Wind Gusts Pressure Precip Precip Rate Daily Precip Total
12:00 AM 24.2°F-4.3°C 20.9°F-6.2°C 87% 1.2 mph WNW1.9 kmh WNW 2.3 mph3.7 kmh 29.94 in1013.9 mb - 0.00 in0.0 mm 0.00 in0.0 mm
12:30 AM 24.0°F-4.4°C 21.0°F-6.1°C 88% Calm Calm 1.2 mph1.9 kmh 29.93 in1013.5 mb - 0.00 in0.0 mm 0.00 in0.0 mm
01:00 AM 24.1°F-4.4°C 21.1°F-6.1°C 88% 2.3 mph E3.7 kmh E 3.5 mph5.6 kmh 29.92 in1013.2 mb - 0.00 in0.0 mm 0.00 in0.0 mm
01:30 AM 24.0°F-4.4°C 21.0°F-6.1°C 88% 2.3 mph ESE3.7 kmh ESE 3.5 mph5.6 kmh 29.91 in1012.9 mb - 0.00 in0.0 mm 0.00 in0.0 mm
02:00 AM 23.9°F-4.5°C 20.9°F-6.2°C 88% 1.2 mph ESE1.9 kmh ESE 2.3 mph3.7 kmh 29.90 in1012.5 mb - 0.00 in0.0 mm 0.00 in0.0 mm
02:30 AM 24.7°F-4.1°C 21.4°F-5.9°C 87% 2.3 mph S3.7 kmh S 3.5 mph5.6 kmh 29.90 in1012.5 mb - 0.00 in0.0 mm 0.00 in0.0 mm
03:00 AM 25.3°F-3.7°C 21.4°F-5.9°C 85% 2.3 mph SE3.7 kmh SE 4.6 mph7.4 kmh 29.89 in1012.2 mb - 0.00 in0.0 mm 0.00 in0.0 mm
03:30 AM 25.3°F-3.7°C 20.3°F-6.5°C 81% 4.6 mph SW7.4 kmh SW 5.8 mph9.3 kmh 29.87 in1011.5 mb - 0.00 in0.0 mm 0.00 in0.0 mm
04:00 AM 24.2°F-4.3°C 19.2°F-7.1°C 81% 2.3 mph S3.7 kmh S 3.5 mph5.6 kmh 29.86 in1011.2 mb - 0.00 in0.0 mm 0.00 in0.0 mm
04:30 AM 23.8°F-4.6°C 19.1°F-7.2°C 82% 3.5 mph SW5.6 kmh SW 4.6 mph7.4 kmh 29.85 in1010.8 mb - 0.00 in0.0 mm 0.00 in0.0 mm
05:00 AM 24.9°F-3.9°C 20.2°F-6.6°C 82% 2.3 mph SE3.7 kmh SE 2.3 mph3.7 kmh 29.84 in1010.5 mb - 0.00 in0.0 mm 0.00 in0.0 mm
05:30 AM 25.3°F-3.7°C 20.3°F-6.5°C 81% 4.6 mph SE7.4 kmh SE 5.8 mph9.3 kmh 29.83 in1010.2 mb - 0.00 in0.0 mm 0.00 in0.0 mm
06:00 AM 25.3°F-3.7°C 20.3°F-6.5°C 81% 6.9 mph SE11.1 kmh SE 9.2 mph14.8 kmh 29.81 in1009.5 mb - 0.00 in0.0 mm 0.00 in0.0 mm
06:30 AM 25.2°F-3.8°C 20.2°F-6.6°C 81% 2.3 mph SE3.7 kmh SE 4.6 mph7.4 kmh 29.81 in1009.5 mb - 0.00 in0.0 mm 0.00 in0.0 mm
07:00 AM 25.7°F-3.5°C 20.9°F-6.2°C 82% 5.8 mph SE9.3 kmh SE 8.1 mph13.0 kmh 29.80 in1009.1 mb - 0.00 in0.0 mm 0.00 in0.0 mm
07:30 AM 25.3°F-3.7°C 20.9°F-6.2°C 83% 8.1 mph SE13.0 kmh SE 10.4 mph16.7 kmh 29.78 in1008.5 mb - 0.00 in0.0 mm 0.00 in0.0 mm
08:00 AM 25.1°F-3.8°C 20.9°F-6.2°C 84% 6.9 mph ESE11.1 kmh ESE 11.5 mph18.5 kmh 29.78 in1008.5 mb - 0.00 in0.0 mm 0.00 in0.0 mm
08:30 AM 25.2°F-3.8°C 21.0°F-6.1°C 84% 8.1 mph SE13.0 kmh SE 10.4 mph16.7 kmh 29.77 in1008.1 mb - 0.00 in0.0 mm 0.00 in0.0 mm
09:00 AM 25.9°F-3.4°C 21.4°F-5.9°C 83% 10.4 mph ESE16.7 kmh ESE 12.7 mph20.4 kmh 29.75 in1007.5 mb - 0.00 in0.0 mm 0.00 in0.0 mm
09:30 AM 26.6°F-3.0°C 21.8°F-5.7°C 82% 8.1 mph SE13.0 kmh SE 10.4 mph16.7 kmh 29.75 in1007.5 mb - 0.00 in0.0 mm 0.00 in0.0 mm
10:00 AM 26.2°F-3.2°C 22.9°F-5.1°C 87% 8.1 mph SE13.0 kmh SE 10.4 mph16.7 kmh 29.74 in1007.1 mb - 0.00 in0.0 mm 0.00 in0.0 mm
10:30 AM 26.4°F-3.1°C 23.9°F-4.5°C 90% 9.2 mph SE14.8 kmh SE 11.5 mph18.5 kmh 29.74 in1007.1 mb - 0.00 in0.0 mm 0.00 in0.0 mm
11:00 AM 26.9°F-2.8°C 24.4°F-4.2°C 90% 8.1 mph SE13.0 kmh SE 12.7 mph20.4 kmh 29.74 in1007.1 mb - 0.00 in0.0 mm 0.00 in0.0 mm
11:30 AM 27.6°F-2.4°C 25.1°F-3.8°C 90% 6.9 mph SE11.1 kmh SE 9.2 mph14.8 kmh 29.72 in1006.4 mb - 0.00 in0.0 mm 0.00 in0.0 mm
12:00 PM 28.5°F-1.9°C 25.4°F-3.7°C 88% 8.1 mph SE13.0 kmh SE 11.5 mph18.5 kmh 29.72 in1006.4 mb - 0.00 in0.0 mm 0.00 in0.0 mm
12:30 PM 29.0°F-1.7°C 26.2°F-3.2°C 89% 6.9 mph SE11.1 kmh SE 10.4 mph16.7 kmh 29.71 in1006.1 mb - 0.00 in0.0 mm 0.00 in0.0 mm
01:00 PM 29.8°F-1.2°C 26.9°F-2.8°C 89% 8.1 mph ESE13.0 kmh ESE 11.5 mph18.5 kmh 29.70 in1005.8 mb - 0.00 in0.0 mm 0.00 in0.0 mm
01:30 PM 30.0°F-1.1°C 27.7°F-2.4°C 91% 5.8 mph SE9.3 kmh SE 9.2 mph14.8 kmh 29.69 in1005.4 mb - 0.00 in0.0 mm 0.00 in0.0 mm
02:00 PM 30.3°F-0.9°C 28.3°F-2.1°C 92% 5.8 mph SE9.3 kmh SE 11.5 mph18.5 kmh 29.68 in1005.1 mb - 0.00 in0.0 mm 0.00 in0.0 mm
02:30 PM 30.6°F-0.8°C 28.9°F-1.7°C 93% 3.5 mph ESE5.6 kmh ESE 3.5 mph5.6 kmh 29.68 in1005.1 mb - 0.00 in0.0 mm 0.00 in0.0 mm
03:00 PM 31.0°F-0.6°C 29.2°F-1.6°C 93% 3.5 mph E5.6 kmh E 5.8 mph9.3 kmh 29.68 in1005.1 mb - 0.00 in0.0 mm 0.00 in0.0 mm
03:30 PM 31.0°F-0.6°C 29.2°F-1.6°C 93% 2.3 mph SE3.7 kmh SE 3.5 mph5.6 kmh 29.68 in1005.1 mb - 0.01 in0.3 mm 0.01 in0.3 mm
04:00 PM 31.1°F-0.5°C 29.6°F-1.3°C 94% 2.3 mph SE3.7 kmh SE 3.5 mph5.6 kmh 29.68 in1005.1 mb - 0.00 in0.0 mm 0.01 in0.3 mm
04:30 PM 31.1°F-0.5°C 29.6°F-1.3°C 94% 1.2 mph E1.9 kmh E 1.2 mph1.9 kmh 29.68 in1005.1 mb - 0.00 in0.0 mm 0.01 in0.3 mm
05:00 PM 30.8°F-0.7°C 29.5°F-1.4°C 95% Calm Calm 1.2 mph1.9 kmh 29.68 in1005.1 mb - 0.00 in0.0 mm 0.01 in0.3 mm
05:30 PM 30.5°F-0.8°C 29.5°F-1.4°C 96% 1.2 mph NE1.9 kmh NE 2.3 mph3.7 kmh 29.68 in1005.1 mb - 0.00 in0.0 mm 0.01 in0.3 mm
06:00 PM 30.0°F-1.1°C 29.0°F-1.7°C 96% 1.2 mph NNE1.9 kmh NNE 2.3 mph3.7 kmh 29.68 in1005.1 mb - 0.00 in0.0 mm 0.01 in0.3 mm
06:30 PM 29.8°F-1.2°C 28.8°F-1.8°C 96% 1.2 mph NW1.9 kmh NW 1.2 mph1.9 kmh 29.68 in1005.1 mb - 0.00 in0.0 mm 0.01 in0.3 mm
07:00 PM 29.3°F-1.5°C 28.3°F-2.1°C 96% 1.2 mph NW1.9 kmh NW 1.2 mph1.9 kmh 29.68 in1005.1 mb - 0.00 in0.0 mm 0.01 in0.3 mm
07:30 PM 28.7°F-1.8°C 27.7°F-2.4°C 96% 2.3 mph NW3.7 kmh NW 2.3 mph3.7 kmh 29.68 in1005.1 mb - 0.00 in0.0 mm 0.01 in0.3 mm
08:00 PM 28.6°F-1.9°C 27.6°F-2.4°C 96% 1.2 mph NW1.9 kmh NW 2.3 mph3.7 kmh 29.68 in1005.1 mb - 0.00 in0.0 mm 0.01 in0.3 mm
08:30 PM 28.4°F-2.0°C 27.4°F-2.6°C 96% 1.2 mph NW1.9 kmh NW 2.3 mph3.7 kmh 29.67 in1004.7 mb - 0.00 in0.0 mm 0.01 in0.3 mm
09:00 PM 28.4°F-2.0°C 27.4°F-2.6°C 96% 2.3 mph NW3.7 kmh NW 3.5 mph5.6 kmh 29.67 in1004.7 mb - 0.00 in0.0 mm 0.01 in0.3 mm
09:30 PM 28.4°F-2.0°C 27.4°F-2.6°C 96% Calm Calm 1.2 mph1.9 kmh 29.67 in1004.7 mb - 0.00 in0.0 mm 0.02 in0.5 mm
10:00 PM 28.3°F-2.1°C 27.3°F-2.6°C 96% 2.3 mph WNW3.7 kmh WNW 3.5 mph5.6 kmh 29.66 in1004.4 mb - 0.00 in0.0 mm 0.02 in0.5 mm
10:30 PM 28.4°F-2.0°C 27.4°F-2.6°C 96% 1.2 mph NW1.9 kmh NW 2.3 mph3.7 kmh 29.66 in1004.4 mb - 0.00 in0.0 mm 0.02 in0.5 mm
11:00 PM 28.5°F-1.9°C 27.5°F-2.5°C 96% 1.2 mph NW1.9 kmh NW 2.3 mph3.7 kmh 29.66 in1004.4 mb - 0.00 in0.0 mm 0.02 in0.5 mm
11:30 PM 28.6°F-1.9°C 27.6°F-2.4°C 96% 1.2 mph NW1.9 kmh NW 2.3 mph3.7 kmh 29.66 in1004.4 mb - 0.00 in0.0 mm 0.02 in0.5 mm